sensor_id;sensor_type;location;lat;lon;timestamp;pressure;altitude;pressure_sealevel;temperature;humidity
77482;BME280;66582;43.004;-75.010;2023-07-28T00:00:55;99837.34;;;31.21;55.58
77482;BME280;66582;43.004;-75.010;2023-07-28T00:03:21;99841.33;;;30.86;53.88
77482;BME280;66582;43.004;-75.010;2023-07-28T00:05:46;99844.44;;;31.96;53.55
77482;BME280;66582;43.004;-75.010;2023-07-28T00:08:10;99848.55;;;31.92;53.69
77482;BME280;66582;43.004;-75.010;2023-07-28T00:10:40;99852.06;;;31.68;54.18
77482;BME280;66582;43.004;-75.010;2023-07-28T00:13:01;99857.75;;;31.93;53.61
77482;BME280;66582;43.004;-75.010;2023-07-28T00:15:26;99858.46;;;31.55;54.18
77482;BME280;66582;43.004;-75.010;2023-07-28T00:17:51;99862.28;;;31.07;55.84
77482;BME280;66582;43.004;-75.010;2023-07-28T00:20:18;99866.93;;;31.76;53.44
77482;BME280;66582;43.004;-75.010;2023-07-28T00:22:42;99874.66;;;29.27;58.35
77482;BME280;66582;43.004;-75.010;2023-07-28T00:25:08;99875.55;;;31.28;55.79
77482;BME280;66582;43.004;-75.010;2023-07-28T00:27:32;99879.37;;;31.68;54.30
77482;BME280;66582;43.004;-75.010;2023-07-28T00:29:58;99890.18;;;31.58;54.29
77482;BME280;66582;43.004;-75.010;2023-07-28T00:32:23;99893.40;;;31.31;54.43
77482;BME280;66582;43.004;-75.010;2023-07-28T00:34:48;99893.59;;;31.77;51.83
77482;BME280;66582;43.004;-75.010;2023-07-28T00:37:14;99897.76;;;31.54;51.18
77482;BME280;66582;43.004;-75.010;2023-07-28T00:39:39;99899.32;;;31.89;51.04
77482;BME280;66582;43.004;-75.010;2023-07-28T00:42:06;99902.76;;;32.28;52.46
77482;BME280;66582;43.004;-75.010;2023-07-28T00:44:29;99910.68;;;31.79;53.13
77482;BME280;66582;43.004;-75.010;2023-07-28T00:46:55;99909.90;;;31.43;53.07
77482;BME280;66582;43.004;-75.010;2023-07-28T00:49:20;99910.53;;;31.47;50.81
77482;BME280;66582;43.004;-75.010;2023-07-28T00:51:45;99912.56;;;31.59;50.68
77482;BME280;66582;43.004;-75.010;2023-07-28T00:54:11;99921.28;;;30.69;53.86
77482;BME280;66582;43.004;-75.010;2023-07-28T00:56:36;99927.79;;;30.88;52.96
77482;BME280;66582;43.004;-75.010;2023-07-28T00:59:00;99933.23;;;31.77;52.17
77482;BME280;66582;43.004;-75.010;2023-07-28T01:01:27;99939.56;;;30.48;53.68
77482;BME280;66582;43.004;-75.010;2023-07-28T01:03:52;99940.95;;;31.03;53.67
77482;BME280;66582;43.004;-75.010;2023-07-28T01:06:24;99952.12;;;30.47;54.82
77482;BME280;66582;43.004;-75.010;2023-07-28T01:08:49;99953.20;;;31.21;53.68
77482;BME280;66582;43.004;-75.010;2023-07-28T01:11:07;99955.40;;;31.31;53.26
77482;BME280;66582;43.004;-75.010;2023-07-28T01:13:32;99949.61;;;31.64;51.14
77482;BME280;66582;43.004;-75.010;2023-07-28T01:15:57;99945.23;;;30.85;51.49
77482;BME280;66582;43.004;-75.010;2023-07-28T01:18:23;99949.11;;;30.84;52.49
77482;BME280;66582;43.004;-75.010;2023-07-28T01:20:48;99947.61;;;30.64;53.63
77482;BME280;66582;43.004;-75.010;2023-07-28T01:23:20;99950.44;;;31.15;52.72
77482;BME280;66582;43.004;-75.010;2023-07-28T01:25:49;99952.59;;;29.93;54.50
77482;BME280;66582;43.004;-75.010;2023-07-28T01:28:04;99958.14;;;29.88;56.81
77482;BME280;66582;43.004;-75.010;2023-07-28T01:30:29;99968.09;;;30.67;54.67
77482;BME280;66582;43.004;-75.010;2023-07-28T01:32:55;99970.72;;;30.50;54.73
77482;BME280;66582;43.004;-75.010;2023-07-28T01:35:19;99972.45;;;30.40;54.86
77482;BME280;66582;43.004;-75.010;2023-07-28T01:37:45;99970.33;;;29.94;56.83
77482;BME280;66582;43.004;-75.010;2023-07-28T01:40:11;99973.73;;;29.72;58.26
77482;BME280;66582;43.004;-75.010;2023-07-28T01:42:35;99983.26;;;29.98;57.48
77482;BME280;66582;43.004;-75.010;2023-07-28T01:45:01;99983.62;;;29.79;56.73
77482;BME280;66582;43.004;-75.010;2023-07-28T01:47:27;99980.00;;;30.54;56.15
77482;BME280;66582;43.004;-75.010;2023-07-28T01:49:52;99975.98;;;28.55;57.96
77482;BME280;66582;43.004;-75.010;2023-07-28T01:52:16;99971.73;;;28.38;60.98
77482;BME280;66582;43.004;-75.010;2023-07-28T01:54:42;99971.36;;;28.77;60.44
77482;BME280;66582;43.004;-75.010;2023-07-28T01:57:07;99974.48;;;27.89;66.63
77482;BME280;66582;43.004;-75.010;2023-07-28T01:59:34;99977.58;;;27.99;64.76
77482;BME280;66582;43.004;-75.010;2023-07-28T02:01:57;99977.89;;;27.09;68.08
77482;BME280;66582;43.004;-75.010;2023-07-28T02:04:23;99978.43;;;28.72;63.05
77482;BME280;66582;43.004;-75.010;2023-07-28T02:06:50;99983.82;;;29.33;59.51
77482;BME280;66582;43.004;-75.010;2023-07-28T02:09:13;99986.25;;;29.42;59.92
77482;BME280;66582;43.004;-75.010;2023-07-28T02:11:39;99987.88;;;27.48;66.35
77482;BME280;66582;43.004;-75.010;2023-07-28T02:14:04;99981.71;;;29.88;59.02
77482;BME280;66582;43.004;-75.010;2023-07-28T02:16:30;99984.85;;;28.82;62.18
77482;BME280;66582;43.004;-75.010;2023-07-28T02:18:54;99988.74;;;30.00;59.00
77482;BME280;66582;43.004;-75.010;2023-07-28T02:21:19;99990.50;;;30.07;57.70
77482;BME280;66582;43.004;-75.010;2023-07-28T02:23:45;99987.62;;;30.42;55.75
77482;BME280;66582;43.004;-75.010;2023-07-28T02:26:10;99997.79;;;30.41;55.59
77482;BME280;66582;43.004;-75.010;2023-07-28T02:28:35;100001.14;;;30.22;56.19
77482;BME280;66582;43.004;-75.010;2023-07-28T02:31:01;100005.84;;;29.01;59.20
77482;BME280;66582;43.004;-75.010;2023-07-28T02:33:27;100007.73;;;30.48;55.25
77482;BME280;66582;43.004;-75.010;2023-07-28T02:35:50;100009.32;;;30.78;54.61
77482;BME280;66582;43.004;-75.010;2023-07-28T02:38:16;100009.97;;;30.60;54.62
77482;BME280;66582;43.004;-75.010;2023-07-28T02:40:41;100008.06;;;30.79;54.40
77482;BME280;66582;43.004;-75.010;2023-07-28T02:43:06;100007.25;;;30.79;53.69
77482;BME280;66582;43.004;-75.010;2023-07-28T02:45:31;100010.97;;;31.20;53.94
77482;BME280;66582;43.004;-75.010;2023-07-28T02:47:56;100017.20;;;31.02;54.00
77482;BME280;66582;43.004;-75.010;2023-07-28T02:50:22;100024.52;;;30.52;54.62
77482;BME280;66582;43.004;-75.010;2023-07-28T02:52:47;100026.19;;;30.51;55.26
77482;BME280;66582;43.004;-75.010;2023-07-28T02:55:12;100022.03;;;30.67;54.60
77482;BME280;66582;43.004;-75.010;2023-07-28T02:57:39;100020.05;;;31.33;52.67
77482;BME280;66582;43.004;-75.010;2023-07-28T03:00:04;100024.02;;;31.17;53.12
77482;BME280;66582;43.004;-75.010;2023-07-28T03:02:28;100019.27;;;31.10;52.98
77482;BME280;66582;43.004;-75.010;2023-07-28T03:04:53;100024.00;;;31.42;52.81
77482;BME280;66582;43.004;-75.010;2023-07-28T03:07:19;100021.67;;;31.21;52.96
77482;BME280;66582;43.004;-75.010;2023-07-28T03:09:43;100017.45;;;29.75;57.10
77482;BME280;66582;43.004;-75.010;2023-07-28T03:12:10;100021.61;;;30.61;55.88
77482;BME280;66582;43.004;-75.010;2023-07-28T03:14:34;100018.16;;;30.67;54.98
77482;BME280;66582;43.004;-75.010;2023-07-28T03:16:59;100018.35;;;30.57;54.72
77482;BME280;66582;43.004;-75.010;2023-07-28T03:19:24;100017.68;;;30.64;54.99
77482;BME280;66582;43.004;-75.010;2023-07-28T03:21:49;100021.35;;;30.68;54.70
77482;BME280;66582;43.004;-75.010;2023-07-28T03:24:15;100028.65;;;29.99;56.47
77482;BME280;66582;43.004;-75.010;2023-07-28T03:26:40;100033.29;;;30.15;56.61
77482;BME280;66582;43.004;-75.010;2023-07-28T03:29:05;100029.32;;;30.01;56.94
77482;BME280;66582;43.004;-75.010;2023-07-28T03:31:31;100021.09;;;28.80;60.45
77482;BME280;66582;43.004;-75.010;2023-07-28T03:33:56;100017.84;;;29.15;60.72
77482;BME280;66582;43.004;-75.010;2023-07-28T03:36:21;100019.59;;;29.60;60.13
77482;BME280;66582;43.004;-75.010;2023-07-28T03:38:46;100019.86;;;29.54;58.59
77482;BME280;66582;43.004;-75.010;2023-07-28T03:41:11;100016.83;;;29.89;58.87
77482;BME280;66582;43.004;-75.010;2023-07-28T03:43:37;100016.34;;;30.23;57.57
77482;BME280;66582;43.004;-75.010;2023-07-28T03:46:02;100018.42;;;29.83;58.18
77482;BME280;66582;43.004;-75.010;2023-07-28T03:48:27;100018.03;;;29.87;59.00
77482;BME280;66582;43.004;-75.010;2023-07-28T03:50:53;100018.23;;;30.59;57.45
77482;BME280;66582;43.004;-75.010;2023-07-28T03:53:17;100021.81;;;29.92;58.29
77482;BME280;66582;43.004;-75.010;2023-07-28T03:55:43;100019.04;;;30.14;57.32
77482;BME280;66582;43.004;-75.010;2023-07-28T03:58:07;100017.32;;;30.36;57.23
77482;BME280;66582;43.004;-75.010;2023-07-28T04:00:33;100025.38;;;24.84;84.96
77482;BME280;66582;43.004;-75.010;2023-07-28T04:02:58;100023.31;;;28.34;69.00
77482;BME280;66582;43.004;-75.010;2023-07-28T04:05:24;100022.52;;;29.79;63.81
77482;BME280;66582;43.004;-75.010;2023-07-28T04:07:49;100014.65;;;29.69;62.18
77482;BME280;66582;43.004;-75.010;2023-07-28T04:10:15;100020.50;;;29.76;61.72
77482;BME280;66582;43.004;-75.010;2023-07-28T04:12:41;100027.38;;;29.79;60.67
77482;BME280;66582;43.004;-75.010;2023-07-28T04:15:06;100024.17;;;29.71;61.55
77482;BME280;66582;43.004;-75.010;2023-07-28T04:17:30;100029.68;;;29.74;60.42
77482;BME280;66582;43.004;-75.010;2023-07-28T04:19:55;100036.38;;;30.12;59.78
77482;BME280;66582;43.004;-75.010;2023-07-28T04:22:20;100040.46;;;30.28;59.79
77482;BME280;66582;43.004;-75.010;2023-07-28T04:24:45;100044.06;;;30.10;61.03
77482;BME280;66582;43.004;-75.010;2023-07-28T04:27:11;100049.08;;;29.92;60.88
77482;BME280;66582;43.004;-75.010;2023-07-28T04:29:37;100047.27;;;29.42;61.86
77482;BME280;66582;43.004;-75.010;2023-07-28T04:32:01;100051.40;;;29.62;61.99
77482;BME280;66582;43.004;-75.010;2023-07-28T04:34:26;100058.20;;;27.88;68.01
77482;BME280;66582;43.004;-75.010;2023-07-28T04:36:51;100057.17;;;28.79;65.04
77482;BME280;66582;43.004;-75.010;2023-07-28T04:39:17;100057.66;;;29.08;64.27
77482;BME280;66582;43.004;-75.010;2023-07-28T04:41:42;100052.47;;;29.59;61.99
77482;BME280;66582;43.004;-75.010;2023-07-28T04:44:08;100045.18;;;29.29;62.17
77482;BME280;66582;43.004;-75.010;2023-07-28T04:46:32;100041.71;;;30.09;60.12
77482;BME280;66582;43.004;-75.010;2023-07-28T04:48:58;100046.76;;;29.91;60.57
77482;BME280;66582;43.004;-75.010;2023-07-28T04:51:23;100056.36;;;30.91;57.52
77482;BME280;66582;43.004;-75.010;2023-07-28T04:53:48;100058.03;;;30.35;57.61
77482;BME280;66582;43.004;-75.010;2023-07-28T04:56:14;100058.30;;;30.25;57.85
77482;BME280;66582;43.004;-75.010;2023-07-28T04:58:40;100052.86;;;30.20;58.72
77482;BME280;66582;43.004;-75.010;2023-07-28T05:01:04;100056.16;;;30.63;57.65
77482;BME280;66582;43.004;-75.010;2023-07-28T05:03:29;100057.15;;;30.95;56.34
77482;BME280;66582;43.004;-75.010;2023-07-28T05:05:55;100058.23;;;30.31;57.61
77482;BME280;66582;43.004;-75.010;2023-07-28T05:08:20;100054.34;;;29.90;58.41
77482;BME280;66582;43.004;-75.010;2023-07-28T05:10:45;100055.94;;;30.80;56.00
77482;BME280;66582;43.004;-75.010;2023-07-28T05:13:11;100059.92;;;30.11;57.81
77482;BME280;66582;43.004;-75.010;2023-07-28T05:15:37;100062.30;;;29.32;60.27
77482;BME280;66582;43.004;-75.010;2023-07-28T05:18:02;100060.84;;;29.06;61.21
77482;BME280;66582;43.004;-75.010;2023-07-28T05:20:26;100061.42;;;29.93;58.26
77482;BME280;66582;43.004;-75.010;2023-07-28T05:22:52;100061.72;;;29.92;59.63
77482;BME280;66582;43.004;-75.010;2023-07-28T05:25:17;100062.30;;;29.48;60.28
77482;BME280;66582;43.004;-75.010;2023-07-28T05:27:42;100054.69;;;29.85;59.73
77482;BME280;66582;43.004;-75.010;2023-07-28T05:30:09;100056.44;;;30.15;58.18
77482;BME280;66582;43.004;-75.010;2023-07-28T05:32:33;100058.01;;;29.96;58.33
77482;BME280;66582;43.004;-75.010;2023-07-28T05:34:58;100061.47;;;29.95;58.33
77482;BME280;66582;43.004;-75.010;2023-07-28T05:37:23;100058.46;;;29.91;58.29
77482;BME280;66582;43.004;-75.010;2023-07-28T05:39:49;100060.15;;;29.54;60.22
77482;BME280;66582;43.004;-75.010;2023-07-28T05:42:13;100056.58;;;28.73;61.83
77482;BME280;66582;43.004;-75.010;2023-07-28T05:44:38;100052.48;;;29.39;60.17
77482;BME280;66582;43.004;-75.010;2023-07-28T05:47:04;100049.41;;;29.53;59.13
77482;BME280;66582;43.004;-75.010;2023-07-28T05:49:29;100042.59;;;30.04;59.45
77482;BME280;66582;43.004;-75.010;2023-07-28T05:51:55;100040.19;;;30.40;57.99
77482;BME280;66582;43.004;-75.010;2023-07-28T05:54:20;100042.29;;;29.30;60.26
77482;BME280;66582;43.004;-75.010;2023-07-28T05:56:45;100043.16;;;29.54;59.87
77482;BME280;66582;43.004;-75.010;2023-07-28T05:59:10;100047.63;;;28.94;61.30
77482;BME280;66582;43.004;-75.010;2023-07-28T06:01:35;100052.59;;;29.72;60.27
77482;BME280;66582;43.004;-75.010;2023-07-28T06:04:01;100055.82;;;29.45;59.96
77482;BME280;66582;43.004;-75.010;2023-07-28T06:06:25;100056.37;;;28.93;62.27
77482;BME280;66582;43.004;-75.010;2023-07-28T06:08:51;100045.78;;;28.73;63.79
77482;BME280;66582;43.004;-75.010;2023-07-28T06:11:16;100035.09;;;28.70;63.51
77482;BME280;66582;43.004;-75.010;2023-07-28T06:13:41;100031.28;;;29.05;65.35
77482;BME280;66582;43.004;-75.010;2023-07-28T06:16:06;100031.73;;;28.26;65.75
77482;BME280;66582;43.004;-75.010;2023-07-28T06:18:32;100029.91;;;28.67;65.09
77482;BME280;66582;43.004;-75.010;2023-07-28T06:20:57;100026.51;;;29.62;62.06
77482;BME280;66582;43.004;-75.010;2023-07-28T06:23:23;100026.28;;;30.20;59.37
77482;BME280;66582;43.004;-75.010;2023-07-28T06:25:49;100030.15;;;29.63;59.32
77482;BME280;66582;43.004;-75.010;2023-07-28T06:28:13;100030.18;;;29.83;58.70
77482;BME280;66582;43.004;-75.010;2023-07-28T06:30:40;100030.14;;;30.08;58.66
77482;BME280;66582;43.004;-75.010;2023-07-28T06:33:06;100029.23;;;30.55;57.27
77482;BME280;66582;43.004;-75.010;2023-07-28T06:35:30;100030.78;;;30.37;56.05
77482;BME280;66582;43.004;-75.010;2023-07-28T06:37:55;100031.07;;;30.67;56.04
77482;BME280;66582;43.004;-75.010;2023-07-28T06:40:20;100036.54;;;30.05;56.93
77482;BME280;66582;43.004;-75.010;2023-07-28T06:42:45;100037.13;;;30.86;54.80
77482;BME280;66582;43.004;-75.010;2023-07-28T06:45:11;100043.00;;;30.61;55.47
77482;BME280;66582;43.004;-75.010;2023-07-28T06:47:36;100048.37;;;29.68;57.13
77482;BME280;66582;43.004;-75.010;2023-07-28T06:50:02;100046.51;;;29.54;58.25
77482;BME280;66582;43.004;-75.010;2023-07-28T06:52:27;100042.19;;;29.89;57.15
77482;BME280;66582;43.004;-75.010;2023-07-28T06:54:52;100041.43;;;30.22;57.32
77482;BME280;66582;43.004;-75.010;2023-07-28T06:57:17;100042.55;;;29.37;58.92
77482;BME280;66582;43.004;-75.010;2023-07-28T06:59:43;100043.39;;;30.13;57.86
77482;BME280;66582;43.004;-75.010;2023-07-28T07:02:07;100044.65;;;30.56;56.76
77482;BME280;66582;43.004;-75.010;2023-07-28T07:04:32;100042.96;;;29.85;56.72
77482;BME280;66582;43.004;-75.010;2023-07-28T07:06:58;100050.54;;;29.93;57.97
77482;BME280;66582;43.004;-75.010;2023-07-28T07:09:23;100061.38;;;29.89;57.81
77482;BME280;66582;43.004;-75.010;2023-07-28T07:11:48;100065.61;;;29.39;59.10
77482;BME280;66582;43.004;-75.010;2023-07-28T07:14:14;100060.83;;;29.19;60.24
77482;BME280;66582;43.004;-75.010;2023-07-28T07:16:39;100059.46;;;28.51;61.30
77482;BME280;66582;43.004;-75.010;2023-07-28T07:19:05;100062.07;;;28.91;60.48
77482;BME280;66582;43.004;-75.010;2023-07-28T07:21:30;100060.67;;;29.16;60.27
77482;BME280;66582;43.004;-75.010;2023-07-28T07:23:56;100064.81;;;28.33;63.09
77482;BME280;66582;43.004;-75.010;2023-07-28T07:26:22;100069.57;;;27.80;64.57
77482;BME280;66582;43.004;-75.010;2023-07-28T07:28:47;100070.54;;;27.15;67.08
77482;BME280;66582;43.004;-75.010;2023-07-28T07:31:13;100069.98;;;27.17;67.96
77482;BME280;66582;43.004;-75.010;2023-07-28T07:33:37;100076.78;;;26.25;73.40
77482;BME280;66582;43.004;-75.010;2023-07-28T07:36:03;100074.26;;;24.51;82.23
77482;BME280;66582;43.004;-75.010;2023-07-28T07:38:27;100058.33;;;27.21;73.97
77482;BME280;66582;43.004;-75.010;2023-07-28T07:40:53;100051.87;;;27.72;68.70
77482;BME280;66582;43.004;-75.010;2023-07-28T07:43:18;100062.41;;;27.82;67.53
77482;BME280;66582;43.004;-75.010;2023-07-28T07:45:44;100071.00;;;29.37;63.23
77482;BME280;66582;43.004;-75.010;2023-07-28T07:48:09;100071.73;;;29.12;61.79
77482;BME280;66582;43.004;-75.010;2023-07-28T07:50:34;100072.61;;;28.91;63.28
77482;BME280;66582;43.004;-75.010;2023-07-28T07:53:00;100077.90;;;27.45;68.26
77482;BME280;66582;43.004;-75.010;2023-07-28T07:55:25;100087.67;;;26.10;73.83
77482;BME280;66582;43.004;-75.010;2023-07-28T07:57:50;100082.35;;;26.73;71.21
77482;BME280;66582;43.004;-75.010;2023-07-28T08:00:16;100081.61;;;27.77;69.33
77482;BME280;66582;43.004;-75.010;2023-07-28T08:02:41;100093.89;;;27.97;66.96
77482;BME280;66582;43.004;-75.010;2023-07-28T08:05:07;100103.95;;;25.98;73.10
77482;BME280;66582;43.004;-75.010;2023-07-28T08:07:32;100098.20;;;23.48;89.75
77482;BME280;66582;43.004;-75.010;2023-07-28T08:09:58;100095.01;;;26.12;80.30
77482;BME280;66582;43.004;-75.010;2023-07-28T08:12:22;100103.24;;;26.50;75.86
77482;BME280;66582;43.004;-75.010;2023-07-28T08:14:47;100104.60;;;28.07;69.31
77482;BME280;66582;43.004;-75.010;2023-07-28T08:17:13;100102.24;;;28.17;68.88
77482;BME280;66582;43.004;-75.010;2023-07-28T08:19:38;100106.03;;;28.27;66.57
77482;BME280;66582;43.004;-75.010;2023-07-28T08:22:03;100108.71;;;27.81;68.49
77482;BME280;66582;43.004;-75.010;2023-07-28T08:24:28;100106.81;;;28.27;66.58
77482;BME280;66582;43.004;-75.010;2023-07-28T08:26:53;100105.94;;;27.67;69.60
77482;BME280;66582;43.004;-75.010;2023-07-28T08:29:18;100104.07;;;28.10;67.31
77482;BME280;66582;43.004;-75.010;2023-07-28T08:31:44;100103.54;;;28.73;65.12
77482;BME280;66582;43.004;-75.010;2023-07-28T08:34:10;100110.08;;;28.62;64.43
77482;BME280;66582;43.004;-75.010;2023-07-28T08:36:35;100121.89;;;28.97;64.24
77482;BME280;66582;43.004;-75.010;2023-07-28T08:39:00;100126.10;;;28.77;64.13
77482;BME280;66582;43.004;-75.010;2023-07-28T08:41:26;100126.25;;;27.93;66.62
77482;BME280;66582;43.004;-75.010;2023-07-28T08:43:52;100131.37;;;27.37;70.69
77482;BME280;66582;43.004;-75.010;2023-07-28T08:46:17;100134.86;;;26.66;73.44
77482;BME280;66582;43.004;-75.010;2023-07-28T08:48:42;100135.19;;;25.67;79.74
77482;BME280;66582;43.004;-75.010;2023-07-28T08:51:07;100139.79;;;27.05;73.82
77482;BME280;66582;43.004;-75.010;2023-07-28T08:53:32;100137.18;;;26.25;78.03
77482;BME280;66582;43.004;-75.010;2023-07-28T08:55:57;100143.17;;;26.69;77.43
77482;BME280;66582;43.004;-75.010;2023-07-28T08:58:23;100145.54;;;27.48;71.93
77482;BME280;66582;43.004;-75.010;2023-07-28T09:00:52;100151.17;;;28.48;66.79
77482;BME280;66582;43.004;-75.010;2023-07-28T09:03:13;100148.47;;;27.97;67.74
77482;BME280;66582;43.004;-75.010;2023-07-28T09:05:39;100144.19;;;28.15;67.55
77482;BME280;66582;43.004;-75.010;2023-07-28T09:08:05;100145.44;;;28.39;66.25
77482;BME280;66582;43.004;-75.010;2023-07-28T09:10:42;100142.46;;;27.25;69.79
77482;BME280;66582;43.004;-75.010;2023-07-28T09:12:54;100140.88;;;27.61;70.68
77482;BME280;66582;43.004;-75.010;2023-07-28T09:15:20;100140.75;;;27.93;69.33
77482;BME280;66582;43.004;-75.010;2023-07-28T09:17:45;100146.65;;;28.30;68.43
77482;BME280;66582;43.004;-75.010;2023-07-28T09:20:13;100143.44;;;28.67;66.71
77482;BME280;66582;43.004;-75.010;2023-07-28T09:22:36;100144.16;;;27.63;68.06
77482;BME280;66582;43.004;-75.010;2023-07-28T09:25:11;100149.14;;;27.22;70.59
77482;BME280;66582;43.004;-75.010;2023-07-28T09:27:27;100155.36;;;28.83;66.52
77482;BME280;66582;43.004;-75.010;2023-07-28T09:29:53;100163.01;;;28.25;66.01
77482;BME280;66582;43.004;-75.010;2023-07-28T09:32:28;100161.97;;;28.65;65.35
77482;BME280;66582;43.004;-75.010;2023-07-28T09:34:42;100159.40;;;28.43;64.79
77482;BME280;66582;43.004;-75.010;2023-07-28T09:37:09;100153.53;;;29.37;62.33
77482;BME280;66582;43.004;-75.010;2023-07-28T09:39:34;100152.41;;;29.11;61.54
77482;BME280;66582;43.004;-75.010;2023-07-28T09:42:00;100159.12;;;29.87;60.39
77482;BME280;66582;43.004;-75.010;2023-07-28T09:44:24;100165.28;;;29.72;59.55
77482;BME280;66582;43.004;-75.010;2023-07-28T09:46:51;100163.63;;;29.00;61.26
77482;BME280;66582;43.004;-75.010;2023-07-28T09:49:15;100166.24;;;29.47;60.55
77482;BME280;66582;43.004;-75.010;2023-07-28T09:51:40;100171.96;;;28.89;61.42
77482;BME280;66582;43.004;-75.010;2023-07-28T09:54:10;100169.45;;;29.45;60.52
77482;BME280;66582;43.004;-75.010;2023-07-28T09:56:30;100170.25;;;28.20;64.13
77482;BME280;66582;43.004;-75.010;2023-07-28T09:58:57;100171.53;;;29.13;62.47
77482;BME280;66582;43.004;-75.010;2023-07-28T10:01:20;100172.32;;;29.10;61.21
77482;BME280;66582;43.004;-75.010;2023-07-28T10:03:45;100166.17;;;28.74;63.24
77482;BME280;66582;43.004;-75.010;2023-07-28T10:06:11;100164.60;;;29.04;62.98
77482;BME280;66582;43.004;-75.010;2023-07-28T10:08:36;100171.44;;;28.71;62.17
77482;BME280;66582;43.004;-75.010;2023-07-28T10:11:02;100174.66;;;29.15;61.77
77482;BME280;66582;43.004;-75.010;2023-07-28T10:13:27;100172.39;;;28.56;63.56
77482;BME280;66582;43.004;-75.010;2023-07-28T10:15:52;100172.25;;;28.76;63.77
77482;BME280;66582;43.004;-75.010;2023-07-28T10:18:20;100172.42;;;26.93;67.75
77482;BME280;66582;43.004;-75.010;2023-07-28T10:20:44;100167.57;;;24.85;83.12
77482;BME280;66582;43.004;-75.010;2023-07-28T10:23:12;100177.70;;;22.43;99.63
77482;BME280;66582;43.004;-75.010;2023-07-28T10:25:36;100184.76;;;21.76;100.00
77482;BME280;66582;43.004;-75.010;2023-07-28T10:27:59;100179.68;;;21.39;100.00
77482;BME280;66582;43.004;-75.010;2023-07-28T10:30:25;100180.11;;;21.67;100.00
77482;BME280;66582;43.004;-75.010;2023-07-28T10:32:50;100177.10;;;23.94;100.00
77482;BME280;66582;43.004;-75.010;2023-07-28T10:35:22;100180.81;;;26.03;90.75
77482;BME280;66582;43.004;-75.010;2023-07-28T10:37:44;100189.81;;;27.30;81.98
77482;BME280;66582;43.004;-75.010;2023-07-28T10:42:31;100196.91;;;25.51;83.90
77482;BME280;66582;43.004;-75.010;2023-07-28T10:44:56;100196.45;;;27.37;75.77
77482;BME280;66582;43.004;-75.010;2023-07-28T10:47:22;100194.84;;;27.85;72.40
77482;BME280;66582;43.004;-75.010;2023-07-28T10:49:48;100191.81;;;28.55;69.61
77482;BME280;66582;43.004;-75.010;2023-07-28T10:52:16;100198.52;;;28.59;69.19
77482;BME280;66582;43.004;-75.010;2023-07-28T10:54:39;100204.64;;;26.33;74.50
77482;BME280;66582;43.004;-75.010;2023-07-28T10:57:05;100198.83;;;27.97;71.20
77482;BME280;66582;43.004;-75.010;2023-07-28T10:59:30;100207.12;;;24.27;89.24
77482;BME280;66582;43.004;-75.010;2023-07-28T11:01:57;100215.71;;;23.61;97.90
77482;BME280;66582;43.004;-75.010;2023-07-28T11:04:21;100209.73;;;24.41;94.67
77482;BME280;66582;43.004;-75.010;2023-07-28T11:06:48;100206.45;;;24.97;90.40
77482;BME280;66582;43.004;-75.010;2023-07-28T11:09:11;100219.06;;;21.67;100.00
77482;BME280;66582;43.004;-75.010;2023-07-28T11:11:36;100211.62;;;25.86;89.48
77482;BME280;66582;43.004;-75.010;2023-07-28T11:14:02;100208.19;;;27.43;79.44
77482;BME280;66582;43.004;-75.010;2023-07-28T11:16:27;100200.73;;;27.41;76.60
77482;BME280;66582;43.004;-75.010;2023-07-28T11:18:57;100201.10;;;24.67;88.35
77482;BME280;66582;43.004;-75.010;2023-07-28T11:21:18;100203.49;;;26.74;81.15
77482;BME280;66582;43.004;-75.010;2023-07-28T11:23:45;100198.91;;;28.51;72.07
77482;BME280;66582;43.004;-75.010;2023-07-28T11:26:08;100199.00;;;28.81;69.69
77482;BME280;66582;43.004;-75.010;2023-07-28T11:28:35;100203.30;;;29.47;67.35
77482;BME280;66582;43.004;-75.010;2023-07-28T11:30:59;100200.46;;;30.49;62.60
77482;BME280;66582;43.004;-75.010;2023-07-28T11:33:24;100204.79;;;30.27;61.32
77482;BME280;66582;43.004;-75.010;2023-07-28T11:35:49;100208.77;;;31.09;58.75
77482;BME280;66582;43.004;-75.010;2023-07-28T11:38:15;100199.22;;;30.47;60.11
77482;BME280;66582;43.004;-75.010;2023-07-28T11:40:40;100194.23;;;31.12;58.52
77482;BME280;66582;43.004;-75.010;2023-07-28T11:43:05;100192.78;;;30.99;60.04
77482;BME280;66582;43.004;-75.010;2023-07-28T11:45:31;100199.50;;;31.57;58.07
77482;BME280;66582;43.004;-75.010;2023-07-28T11:47:58;100201.57;;;31.66;57.45
77482;BME280;66582;43.004;-75.010;2023-07-28T11:50:25;100203.96;;;31.27;56.58
77482;BME280;66582;43.004;-75.010;2023-07-28T11:52:46;100204.33;;;31.69;56.52
77482;BME280;66582;43.004;-75.010;2023-07-28T11:55:11;100207.69;;;31.09;58.37
77482;BME280;66582;43.004;-75.010;2023-07-28T11:57:37;100211.07;;;31.46;56.28
77482;BME280;66582;43.004;-75.010;2023-07-28T12:00:02;100212.86;;;32.19;55.45
77482;BME280;66582;43.004;-75.010;2023-07-28T12:02:28;100208.40;;;32.53;53.30
77482;BME280;66582;43.004;-75.010;2023-07-28T12:04:52;100208.03;;;31.62;55.11
77482;BME280;66582;43.004;-75.010;2023-07-28T12:07:17;100204.07;;;31.73;55.43
77482;BME280;66582;43.004;-75.010;2023-07-28T12:09:49;100200.58;;;30.81;57.44
77482;BME280;66582;43.004;-75.010;2023-07-28T12:12:08;100200.46;;;31.81;55.28
77482;BME280;66582;43.004;-75.010;2023-07-28T12:14:34;100209.39;;;30.82;56.96
77482;BME280;66582;43.004;-75.010;2023-07-28T12:16:59;100216.07;;;31.99;55.28
77482;BME280;66582;43.004;-75.010;2023-07-28T12:19:24;100220.26;;;30.94;57.10
77482;BME280;66582;43.004;-75.010;2023-07-28T12:21:49;100228.23;;;31.25;55.96
77482;BME280;66582;43.004;-75.010;2023-07-28T12:24:15;100235.88;;;31.70;55.64